»·PEaware :: DAL1780 KLAX-KSLC

DAL1780 :: KLAX-KSLC

FLIGHT INFORMATION

Flight Status: Arrived
Operator:
Delta Air Lines
More flights by this operator :: More flights under this callsign
Pilot: Ben F. (2808)
Aircraft: BOEING 727-200
(B722)
More flights by this aircraft type
Origin: KLAX Los Angeles Intl
United States
Destination: KSLC Salt Lake City Intl
United States
More flights between these airports :: More routes between these airports
Route: SEBBY3 DAG J9 MLF JAMMN5
File this flight plan on PilotEdge
Remarks:
Altitude:
(Current/Filed)
33,000ft
Speed:
(Current/Filed)
474kts
Departed: 19-Nov-18 09:36 AM
Arrived: 19-Nov-18 11:07 AM
Distance/Time
Traveled:
512nm/1:31
Distance/Time
To Go:
Arrived

Flight Plot

Page will automatically refresh every two minutes.

Flight plan parsing failed; only flown route is shown


Map Options




Map Legend


Flown Route
Filed Route
Departure Airport
Arrival Airport
Navaid (VOR, NDB)
Fix

Horizontal Profiles

Position Reports

Time Latitude Longitude Heading Altitude Ground
Speed
19-Nov-18 09:22 33.946399 -118.406350 295 139ft 0kts
19-Nov-18 09:23 33.946399 -118.406350 295 139ft 0kts
19-Nov-18 09:24 33.946399 -118.406350 295 139ft 0kts
19-Nov-18 09:25 33.946399 -118.406350 295 139ft 0kts
19-Nov-18 09:26 33.946399 -118.406350 295 139ft 0kts
19-Nov-18 09:27 33.946399 -118.406350 295 139ft 0kts
19-Nov-18 09:28 33.946399 -118.406350 295 139ft 0kts
19-Nov-18 09:29 33.946399 -118.406350 295 139ft 0kts
19-Nov-18 09:30 33.946126 -118.405815 341 139ft 2kts
19-Nov-18 09:31 33.946874 -118.405927 353 139ft 0kts
19-Nov-18 09:32 33.946874 -118.405927 353 139ft 0kts
19-Nov-18 09:33 33.946874 -118.405927 353 139ft 0kts
19-Nov-18 09:34 33.946912 -118.405933 353 139ft 2kts
19-Nov-18 09:35 33.948104 -118.403751 82 139ft 16kts
19-Nov-18 09:36 33.949435 -118.399324 45 139ft 5kts
19-Nov-18 09:37 33.950067 -118.399157 346 139ft 13kts
19-Nov-18 09:38 33.950248 -118.401140 262 139ft 38kts
19-Nov-18 09:39 33.945151 -118.447241 261 1259ft 175kts
19-Nov-18 09:40 33.934893 -118.505360 258 3114ft 194kts
19-Nov-18 09:41 33.924178 -118.583308 262 4799ft 274kts
19-Nov-18 09:42 33.879919 -118.643113 172 7971ft 274kts
19-Nov-18 09:43 33.806229 -118.616319 162 8989ft 277kts
19-Nov-18 09:44 33.731630 -118.588043 162 10507ft 288kts
19-Nov-18 09:45 33.649461 -118.556076 160 12436ft 328kts
19-Nov-18 09:46 33.613800 -118.465307 72 14794ft 349kts
19-Nov-18 09:47 33.658668 -118.360105 65 16838ft 364kts
19-Nov-18 09:48 33.703908 -118.250364 66 18710ft 377kts
19-Nov-18 09:49 33.750856 -118.136183 66 20388ft 390kts
19-Nov-18 09:50 33.813228 -118.030685 39 21796ft 406kts
19-Nov-18 09:51 33.902147 -117.948112 37 23133ft 417kts
19-Nov-18 09:52 33.994983 -117.863696 37 24369ft 427kts
19-Nov-18 09:53 34.089660 -117.775946 45 25470ft 435kts
19-Nov-18 09:54 34.170352 -117.668916 48 26412ft 443kts
19-Nov-18 09:55 34.252430 -117.557724 48 27321ft 450kts
19-Nov-18 09:56 34.335938 -117.444073 48 28168ft 457kts
19-Nov-18 09:57 34.405520 -117.349068 48 28874ft 461kts
19-Nov-18 09:58 34.502931 -117.215638 48 29817ft 464kts
19-Nov-18 09:59 34.587911 -117.098812 47 30577ft 466kts
19-Nov-18 10:00 34.656511 -117.004136 46 31352ft 462kts
19-Nov-18 10:01 34.743558 -116.883745 44 32161ft 460kts
19-Nov-18 10:02 34.813728 -116.786476 44 32740ft 460kts
19-Nov-18 10:03 34.912299 -116.649335 45 33244ft 466kts
19-Nov-18 10:04 35.000384 -116.532142 43 33254ft 477kts
19-Nov-18 10:05 35.078634 -116.434621 43 33262ft 486kts
19-Nov-18 10:06 35.169499 -116.321179 43 33261ft 484kts
19-Nov-18 10:07 35.261068 -116.206479 43 33262ft 483kts
19-Nov-18 10:08 35.354641 -116.088865 43 33263ft 484kts
19-Nov-18 10:09 35.448432 -115.970277 43 33263ft 485kts
19-Nov-18 10:10 35.541408 -115.850942 43 33270ft 486kts
19-Nov-18 10:11 35.634365 -115.731793 43 33283ft 486kts
19-Nov-18 10:12 35.727716 -115.612211 43 33292ft 487kts
19-Nov-18 10:13 35.821315 -115.492411 43 33292ft 487kts
19-Nov-18 10:14 35.915022 -115.372058 43 33284ft 488kts
19-Nov-18 10:15 36.005344 -115.255655 44 33280ft 488kts
19-Nov-18 10:16 36.098517 -115.135833 43 33289ft 488kts
19-Nov-18 10:17 36.189961 -115.020271 43 33291ft 488kts
19-Nov-18 10:18 36.284243 -114.900732 43 33291ft 488kts
19-Nov-18 10:19 36.378376 -114.780471 44 33291ft 488kts
19-Nov-18 10:20 36.471511 -114.659399 44 33291ft 488kts
19-Nov-18 10:21 36.564736 -114.537720 44 33292ft 488kts
19-Nov-18 10:22 36.657543 -114.416134 44 33302ft 488kts
19-Nov-18 10:23 36.748019 -114.297510 41 33322ft 486kts
19-Nov-18 10:24 36.857454 -114.206687 29 33343ft 480kts
19-Nov-18 10:25 36.970423 -114.119168 29 33343ft 480kts
19-Nov-18 10:26 37.083207 -114.031756 29 33344ft 479kts
19-Nov-18 10:27 37.191010 -113.947894 29 33345ft 476kts
19-Nov-18 10:28 37.302334 -113.860998 29 33344ft 471kts
19-Nov-18 10:29 37.412455 -113.774751 29 33344ft 468kts
19-Nov-18 10:30 37.521931 -113.688561 29 33341ft 465kts
19-Nov-18 10:31 37.630170 -113.602441 29 33327ft 463kts
19-Nov-18 10:32 37.738489 -113.515941 29 33317ft 462kts
19-Nov-18 10:33 37.846730 -113.429199 29 33316ft 462kts
19-Nov-18 10:34 37.952035 -113.344515 30 33315ft 463kts
19-Nov-18 10:35 38.059491 -113.257810 30 33314ft 463kts
19-Nov-18 10:36 38.158512 -113.177631 30 33336ft 464kts
19-Nov-18 10:37 38.266586 -113.089834 30 33347ft 465kts
19-Nov-18 10:38 38.377105 -113.005634 20 33350ft 463kts
19-Nov-18 10:39 38.495053 -112.941830 21 33344ft 465kts
19-Nov-18 10:40 38.614264 -112.878197 21 33344ft 468kts
19-Nov-18 10:41 38.734122 -112.814058 22 33344ft 470kts
19-Nov-18 10:42 38.854434 -112.749364 22 33266ft 473kts
19-Nov-18 10:43 38.972709 -112.685126 22 31478ft 458kts
19-Nov-18 10:44 39.088673 -112.621920 22 29474ft 449kts
19-Nov-18 10:45 39.191151 -112.565895 22 27560ft 446kts
19-Nov-18 10:46 39.304785 -112.505047 15 25022ft 451kts
19-Nov-18 10:47 39.424953 -112.464360 13 23495ft 443kts
19-Nov-18 10:48 39.542827 -112.425202 13 22804ft 440kts
19-Nov-18 10:49 39.660564 -112.386027 13 22110ft 438kts
19-Nov-18 10:50 39.774352 -112.348039 13 20782ft 431kts
19-Nov-18 10:51 39.886447 -112.310710 13 18791ft 413kts
19-Nov-18 10:52 39.995280 -112.274416 13 16978ft 393kts
19-Nov-18 10:53 40.093857 -112.241296 13 16326ft 353kts
19-Nov-18 10:54 40.181344 -112.211704 13 15038ft 338kts
19-Nov-18 10:55 40.268943 -112.181989 13 14984ft 334kts
19-Nov-18 10:56 40.361450 -112.150541 13 14978ft 348kts
19-Nov-18 10:57 40.453774 -112.119047 13 14974ft 338kts
19-Nov-18 10:58 40.540925 -112.089061 13 14970ft 311kts
19-Nov-18 10:59 40.622697 -112.080648 354 14974ft 292kts
19-Nov-18 11:00 40.703350 -112.089432 354 14019ft 296kts
19-Nov-18 11:01 40.782258 -112.097808 354 12311ft 274kts
19-Nov-18 11:02 40.853876 -112.105220 354 10956ft 232kts
19-Nov-18 11:03 40.916601 -112.111898 354 9782ft 230kts
19-Nov-18 11:04 40.980291 -112.117732 11 8293ft 232kts
19-Nov-18 11:05 40.991702 -112.058789 132 7951ft 178kts
19-Nov-18 11:06 40.948601 -112.016021 174 7026ft 194kts
19-Nov-18 11:07 40.900887 -112.010185 175 6105ft 152kts
19-Nov-18 11:08 40.859038 -112.005277 175 5285ft 152kts
19-Nov-18 11:09 40.817791 -112.000455 175 4494ft 149kts
19-Nov-18 11:10 40.788338 -111.996626 156 4239ft 23kts
19-Nov-18 11:11 40.787477 -111.994056 33 4239ft 9kts
19-Nov-18 11:12 40.791086 -111.992390 84 4239ft 18kts
19-Nov-18 11:13 40.791590 -111.984668 83 4239ft 21kts
19-Nov-18 11:14 40.788673 -111.982851 185 4239ft 7kts
19-Nov-18 11:15 40.788286 -111.982133 102 4239ft 1kts
19-Nov-18 11:16 40.788286 -111.982142 103 4239ft 0kts

Navigation Log

Ident Type
Flight plan parsing failed, navigation log unavailable